createdAt,value
2022-10-31T00:01:13.732Z,9.07
2022-10-31T00:03:40.470Z,8.15
2022-10-31T00:06:07.616Z,10.82
2022-10-31T00:08:34.485Z,6.93
2022-10-31T00:11:01.531Z,19.27
2022-10-31T00:13:28.226Z,9.45
2022-10-31T00:15:54.962Z,6.18
2022-10-31T00:18:21.672Z,11.38
2022-10-31T00:20:48.396Z,8.20
2022-10-31T00:23:15.078Z,9.48
2022-10-31T00:25:41.846Z,8.50
2022-10-31T00:28:11.975Z,7.57
2022-10-31T00:30:38.841Z,10.13
2022-10-31T00:33:06.268Z,10.48
2022-10-31T00:35:33.480Z,9.48
2022-10-31T00:38:00.544Z,7.97
2022-10-31T00:40:27.254Z,9.93
2022-10-31T00:42:54.248Z,8.45
2022-10-31T00:45:21.030Z,10.15
2022-10-31T00:47:48.020Z,7.35
2022-10-31T00:50:14.938Z,6.68
2022-10-31T00:52:41.717Z,9.27
2022-10-31T00:55:08.668Z,8.23
2022-10-31T00:57:35.411Z,7.57
2022-10-31T01:00:05.204Z,8.65
2022-10-31T01:02:32.036Z,11.43
2022-10-31T01:04:58.822Z,7.28
2022-10-31T01:07:25.588Z,7.97
2022-10-31T01:09:52.479Z,8.38
2022-10-31T01:12:20.054Z,13.52
2022-10-31T01:14:46.928Z,10.75
2022-10-31T01:17:14.633Z,6.95
2022-10-31T01:19:41.530Z,10.32
2022-10-31T01:22:08.294Z,9.00
2022-10-31T01:24:35.092Z,9.57
2022-10-31T01:27:02.771Z,8.60
2022-10-31T01:29:33.425Z,9.10
2022-10-31T01:32:00.129Z,7.10
2022-10-31T01:34:27.054Z,7.50
2022-10-31T01:36:53.789Z,6.63
2022-10-31T01:39:22.247Z,8.25
2022-10-31T01:41:51.568Z,5.57
2022-10-31T01:44:18.206Z,12.60
2022-10-31T01:47:08.711Z,6.93
2022-10-31T01:49:43.806Z,8.23
2022-10-31T01:52:19.828Z,6.65
2022-10-31T01:54:59.475Z,8.68
2022-10-31T01:57:27.479Z,8.07
2022-10-31T01:59:58.681Z,6.63
2022-10-31T02:02:27.944Z,7.22
2022-10-31T02:04:55.528Z,6.78
2022-10-31T02:07:31.100Z,5.20
2022-10-31T02:10:00.259Z,6.25
2022-10-31T02:12:27.032Z,5.68
2022-10-31T02:15:01.290Z,6.15
2022-10-31T02:17:29.861Z,7.63
2022-10-31T02:20:17.417Z,7.07
2022-10-31T02:23:21.234Z,7.63
2022-10-31T02:26:10.215Z,7.60
2022-10-31T02:29:01.785Z,9.38
2022-10-31T02:31:49.576Z,4.97
2022-10-31T02:34:23.828Z,8.70
2022-10-31T02:36:57.685Z,5.75
2022-10-31T02:39:28.648Z,6.97
2022-10-31T02:42:08.473Z,10.07
2022-10-31T02:44:49.726Z,6.35
2022-10-31T02:47:27.520Z,8.18
2022-10-31T02:50:03.396Z,6.70
2022-10-31T02:52:32.738Z,8.40
2022-10-31T02:55:13.584Z,4.85
2022-10-31T02:57:43.175Z,7.07
2022-10-31T03:00:10.802Z,10.20
2022-10-31T03:03:25.490Z,8.45
2022-10-31T03:06:15.424Z,6.78
2022-10-31T03:08:55.543Z,7.07
2022-10-31T03:11:30.301Z,7.50
2022-10-31T03:14:13.679Z,7.95
2022-10-31T03:16:48.645Z,4.93
2022-10-31T03:19:21.373Z,5.35
2022-10-31T03:22:01.306Z,6.18
2022-10-31T03:24:32.972Z,7.20
2022-10-31T03:27:02.251Z,7.30
2022-10-31T03:29:35.605Z,6.40
2022-10-31T03:32:08.523Z,8.02
2022-10-31T03:34:38.691Z,4.50
2022-10-31T03:37:10.813Z,5.68
2022-10-31T03:39:41.561Z,7.97
2022-10-31T03:42:22.984Z,3.75
2022-10-31T03:44:59.939Z,5.32
2022-10-31T03:47:28.290Z,10.15
2022-10-31T03:49:55.660Z,5.95
2022-10-31T03:52:30.830Z,6.70
2022-10-31T03:55:01.038Z,5.72
2022-10-31T03:57:40.908Z,5.00
2022-10-31T04:00:17.015Z,13.68
2022-10-31T04:03:08.608Z,9.20
2022-10-31T04:05:38.424Z,7.55
2022-10-31T04:08:10.041Z,7.43
2022-10-31T04:10:38.965Z,6.95
2022-10-31T04:13:20.455Z,6.78
2022-10-31T04:15:54.993Z,7.43
2022-10-31T04:18:27.241Z,4.18
2022-10-31T04:21:05.752Z,4.60
2022-10-31T04:23:33.622Z,6.18
2022-10-31T04:26:04.289Z,4.00
2022-10-31T04:28:31.112Z,4.95
2022-10-31T04:30:57.963Z,6.50
2022-10-31T04:33:24.686Z,9.40
2022-10-31T04:35:51.494Z,4.97
2022-10-31T04:38:18.894Z,5.72
2022-10-31T04:40:46.825Z,7.45
2022-10-31T04:43:44.157Z,8.57
2022-10-31T04:46:10.871Z,7.05
2022-10-31T04:48:37.630Z,7.40
2022-10-31T04:51:06.508Z,6.80
2022-10-31T04:53:33.564Z,8.05
2022-10-31T04:56:26.318Z,5.00
2022-10-31T04:58:58.220Z,4.30
2022-10-31T05:01:26.361Z,5.25
2022-10-31T05:03:53.165Z,8.93
2022-10-31T05:06:19.885Z,7.38
2022-10-31T05:08:47.028Z,8.60
2022-10-31T05:11:14.972Z,4.70
2022-10-31T05:13:43.820Z,10.13
2022-10-31T05:16:13.398Z,6.53
2022-10-31T05:18:40.072Z,5.72
2022-10-31T05:21:27.083Z,5.13
2022-10-31T05:23:58.669Z,7.53
2022-10-31T05:26:25.686Z,5.75
2022-10-31T05:28:54.013Z,6.68
2022-10-31T05:31:20.721Z,7.65
2022-10-31T05:33:48.997Z,5.93
2022-10-31T05:36:54.285Z,5.95
2022-10-31T05:39:23.163Z,6.05
2022-10-31T05:41:54.878Z,5.60
2022-10-31T05:44:26.256Z,5.88
2022-10-31T05:47:25.884Z,6.70
2022-10-31T05:49:55.522Z,5.03
2022-10-31T05:52:40.729Z,7.57
2022-10-31T05:55:18.389Z,4.57
2022-10-31T06:00:29.786Z,4.90
2022-10-31T06:05:50.712Z,6.38
2022-10-31T06:08:21.354Z,7.05
2022-10-31T06:10:49.290Z,10.25
2022-10-31T06:13:21.722Z,10.23
2022-10-31T06:15:55.320Z,5.88
2022-10-31T06:18:25.718Z,5.97
2022-10-31T06:20:54.419Z,8.20
2022-10-31T06:23:22.947Z,7.57
2022-10-31T06:25:54.478Z,8.48
2022-10-31T06:28:24.968Z,9.40
2022-10-31T06:31:13.242Z,6.68
2022-10-31T06:33:43.078Z,5.88
2022-10-31T06:36:19.404Z,6.78
2022-10-31T06:38:47.651Z,5.28
2022-10-31T06:41:17.833Z,7.95
2022-10-31T06:43:48.548Z,10.23
2022-10-31T06:46:48.349Z,10.77
2022-10-31T06:49:39.529Z,7.22
2022-10-31T06:52:12.510Z,6.15
2022-10-31T06:54:43.651Z,8.25
2022-10-31T06:57:13.209Z,7.22
2022-10-31T06:59:43.722Z,7.65
2022-10-31T07:02:59.507Z,15.25
2022-10-31T07:05:27.684Z,7.32
2022-10-31T07:07:56.278Z,9.07
2022-10-31T07:10:26.647Z,9.25
2022-10-31T07:13:01.778Z,7.50
2022-10-31T07:15:34.842Z,8.00
2022-10-31T07:18:10.814Z,8.63
2022-10-31T07:20:38.119Z,7.00
2022-10-31T07:23:06.114Z,8.68
2022-10-31T07:25:41.169Z,4.95
2022-10-31T07:28:15.856Z,6.15
2022-10-31T07:30:59.000Z,9.23
2022-10-31T07:33:27.262Z,6.53
2022-10-31T07:36:14.029Z,6.57
2022-10-31T07:38:43.691Z,9.07
2022-10-31T07:41:10.855Z,6.78
2022-10-31T07:43:41.940Z,8.10
2022-10-31T07:46:08.630Z,8.13
2022-10-31T07:49:08.084Z,11.23
2022-10-31T07:51:53.813Z,9.80
2022-10-31T07:54:46.831Z,7.03
2022-10-31T07:57:34.455Z,8.73
2022-10-31T08:00:09.063Z,8.40
2022-10-31T08:02:46.182Z,7.30
2022-10-31T08:05:32.877Z,10.05
2022-10-31T08:08:33.374Z,10.48
2022-10-31T08:11:07.354Z,7.32
2022-10-31T08:13:43.956Z,10.65
2022-10-31T08:16:15.864Z,12.93
2022-10-31T08:18:58.037Z,9.68
2022-10-31T08:21:25.122Z,7.30
2022-10-31T08:24:01.055Z,10.27
2022-10-31T08:26:29.563Z,8.98
2022-10-31T08:29:20.819Z,9.50
2022-10-31T08:31:47.713Z,7.75
2022-10-31T08:34:33.224Z,8.43
2022-10-31T08:37:37.986Z,7.50
2022-10-31T08:40:07.559Z,7.82
2022-10-31T08:42:35.374Z,12.75
2022-10-31T08:45:04.537Z,8.73
2022-10-31T08:47:35.913Z,7.60
2022-10-31T08:50:02.843Z,13.70
2022-10-31T08:52:58.770Z,17.90
2022-10-31T08:55:18.686Z,12.63
2022-10-31T08:58:22.641Z,14.32
2022-10-31T09:00:54.961Z,13.43
2022-10-31T09:03:24.595Z,9.18
2022-10-31T09:06:03.418Z,8.25
2022-10-31T09:08:36.906Z,11.27
2022-10-31T09:11:04.932Z,7.85
2022-10-31T09:14:01.710Z,12.02
2022-10-31T09:16:43.787Z,11.82
2022-10-31T09:19:23.602Z,9.60
2022-10-31T09:22:02.612Z,8.10
2022-10-31T09:24:31.130Z,13.43
2022-10-31T09:27:04.381Z,13.02
2022-10-31T09:29:32.472Z,8.77
2022-10-31T09:32:07.372Z,10.27
2022-10-31T09:34:46.930Z,12.00
2022-10-31T09:37:19.105Z,15.98
2022-10-31T09:39:48.994Z,7.45
2022-10-31T09:42:50.095Z,7.35
2022-10-31T09:45:40.068Z,9.30
2022-10-31T09:48:39.410Z,7.45
2022-10-31T09:51:53.728Z,9.90
2022-10-31T09:54:53.534Z,9.57
2022-10-31T09:57:41.581Z,7.20
2022-10-31T10:00:31.074Z,9.85
2022-10-31T10:03:12.364Z,9.07
2022-10-31T10:06:07.313Z,12.68
2022-10-31T10:09:03.162Z,12.18
2022-10-31T10:12:00.770Z,8.60
2022-10-31T10:14:43.085Z,11.52
2022-10-31T10:17:09.839Z,10.52
2022-10-31T10:20:05.212Z,11.18
2022-10-31T10:23:08.534Z,11.13
2022-10-31T10:26:11.229Z,11.63
2022-10-31T10:28:49.787Z,9.23
2022-10-31T10:31:20.218Z,9.38
2022-10-31T10:34:29.735Z,11.48
2022-10-31T10:37:11.218Z,8.20
2022-10-31T10:39:55.613Z,14.45
2022-10-31T10:42:54.140Z,9.55
2022-10-31T10:45:39.772Z,12.88
2022-10-31T10:48:16.637Z,10.10
2022-10-31T10:50:49.254Z,13.43
2022-10-31T10:54:00.403Z,8.38
2022-10-31T10:57:01.816Z,10.40
2022-10-31T10:59:28.634Z,15.20
2022-10-31T11:01:59.802Z,10.95
2022-10-31T11:04:30.372Z,13.50
2022-10-31T11:07:09.022Z,13.55
2022-10-31T11:09:39.363Z,15.95
2022-10-31T11:12:45.448Z,12.00
2022-10-31T11:15:49.191Z,13.65
2022-10-31T11:18:32.751Z,8.30
2022-10-31T11:21:55.489Z,10.77
2022-10-31T11:24:51.545Z,10.38
2022-10-31T11:27:22.490Z,11.43
2022-10-31T11:30:05.696Z,9.98
2022-10-31T11:32:35.640Z,10.55
2022-10-31T11:35:17.332Z,12.27
2022-10-31T11:37:46.089Z,7.57
2022-10-31T11:40:25.883Z,7.47
2022-10-31T11:43:19.182Z,8.77
2022-10-31T11:45:46.152Z,7.97
2022-10-31T11:48:31.061Z,10.15
2022-10-31T11:51:10.783Z,8.93
2022-10-31T11:53:47.093Z,13.48
2022-10-31T11:56:17.145Z,8.68
2022-10-31T11:58:45.016Z,12.68
2022-10-31T12:01:29.860Z,10.23
2022-10-31T12:04:10.945Z,8.23
2022-10-31T12:06:57.161Z,10.43
2022-10-31T12:09:28.994Z,5.93
2022-10-31T12:12:14.661Z,5.25
2022-10-31T12:14:53.153Z,11.10
2022-10-31T12:17:40.662Z,8.35
2022-10-31T12:24:41.252Z,14.48
2022-10-31T12:27:23.432Z,14.63
2022-10-31T12:30:17.592Z,12.00
2022-10-31T12:32:57.059Z,13.27
2022-10-31T12:35:37.251Z,10.38
2022-10-31T12:38:27.417Z,9.68
2022-10-31T12:41:17.287Z,12.50
2022-10-31T12:43:54.185Z,9.38
2022-10-31T12:46:41.552Z,7.35
2022-10-31T12:49:20.237Z,9.25
2022-10-31T12:52:03.178Z,9.65
2022-10-31T12:54:56.324Z,10.20
2022-10-31T12:57:34.059Z,9.20
2022-10-31T13:00:00.672Z,10.98
2022-10-31T13:02:40.042Z,13.25
2022-10-31T13:05:15.410Z,8.02
2022-10-31T13:07:58.220Z,8.30
2022-10-31T13:10:43.848Z,9.70
2022-10-31T13:13:25.842Z,9.35
2022-10-31T13:15:58.497Z,9.77
2022-10-31T13:18:48.455Z,9.20
2022-10-31T13:21:48.155Z,9.02
2022-10-31T13:24:23.247Z,9.68
2022-10-31T13:27:02.947Z,8.90
2022-10-31T13:29:34.544Z,11.32
2022-10-31T13:32:06.154Z,11.07
2022-10-31T13:34:32.806Z,11.13
2022-10-31T13:37:06.480Z,10.75
2022-10-31T13:39:42.132Z,10.60
2022-10-31T13:42:34.434Z,9.82
2022-10-31T13:45:21.447Z,8.02
2022-10-31T13:48:15.599Z,9.93
2022-10-31T13:50:44.191Z,11.73
2022-10-31T13:53:17.865Z,14.27
2022-10-31T13:55:51.635Z,11.60
2022-10-31T13:58:33.468Z,9.30
2022-10-31T14:01:21.701Z,6.78
2022-10-31T14:04:13.519Z,10.93
2022-10-31T14:06:43.773Z,9.13
2022-10-31T14:09:21.544Z,9.52
2022-10-31T14:11:49.858Z,7.40
2022-10-31T14:14:18.012Z,9.88
2022-10-31T14:16:47.777Z,8.07
2022-10-31T14:19:22.049Z,9.38
2022-10-31T14:21:50.059Z,8.90
2022-10-31T14:24:33.438Z,13.25
2022-10-31T14:27:24.300Z,9.20
2022-10-31T14:29:51.458Z,8.88
2022-10-31T14:32:25.023Z,11.50
2022-10-31T14:34:51.725Z,12.20
2022-10-31T14:37:33.101Z,12.00
2022-10-31T14:40:27.663Z,8.88
2022-10-31T14:43:13.266Z,10.35
2022-10-31T14:45:58.004Z,6.65
2022-10-31T14:49:09.832Z,12.80
2022-10-31T14:51:56.099Z,9.50
2022-10-31T14:54:32.082Z,8.95
2022-10-31T14:57:06.209Z,7.47
2022-10-31T14:59:39.183Z,8.27
2022-10-31T15:02:28.618Z,9.70
2022-10-31T15:04:59.885Z,12.25
2022-10-31T15:07:28.328Z,12.95
2022-10-31T15:10:05.038Z,14.85
2022-10-31T15:12:43.052Z,12.38
2022-10-31T15:15:24.815Z,8.98
2022-10-31T15:17:59.257Z,9.70
2022-10-31T15:20:34.795Z,7.00
2022-10-31T15:23:28.358Z,6.25
2022-10-31T15:26:06.944Z,7.13
2022-10-31T15:28:33.983Z,16.30
2022-10-31T15:31:05.626Z,11.68
2022-10-31T15:33:45.444Z,8.45
2022-10-31T15:36:27.294Z,7.72
2022-10-31T15:38:59.890Z,11.85
2022-10-31T15:41:46.572Z,12.50
2022-10-31T15:44:22.125Z,10.63
2022-10-31T15:47:01.289Z,8.68
2022-10-31T15:49:34.157Z,9.63
2022-10-31T15:52:16.243Z,7.15
2022-10-31T15:54:55.241Z,7.82
2022-10-31T15:57:26.404Z,11.32
2022-10-31T15:59:54.104Z,10.55
2022-10-31T16:02:24.454Z,8.80
2022-10-31T16:05:06.534Z,9.73
2022-10-31T16:07:34.279Z,9.15
2022-10-31T16:10:27.395Z,20.55
2022-10-31T16:12:54.889Z,18.20
2022-10-31T16:15:30.839Z,13.20
2022-10-31T16:18:01.416Z,10.57
2022-10-31T16:20:34.353Z,8.43
2022-10-31T16:23:02.056Z,9.05
2022-10-31T16:25:36.688Z,9.00
2022-10-31T16:28:17.543Z,6.40
2022-10-31T16:30:52.871Z,7.22
2022-10-31T16:33:37.838Z,9.77
2022-10-31T16:36:42.271Z,11.38
2022-10-31T16:39:18.384Z,6.60
2022-10-31T16:41:47.710Z,9.50
2022-10-31T16:44:24.939Z,15.82
2022-10-31T16:47:25.969Z,20.85
2022-10-31T16:50:01.344Z,26.17
2022-10-31T16:52:31.549Z,18.67
2022-10-31T16:55:11.171Z,13.73
2022-10-31T16:57:46.179Z,28.63
2022-10-31T17:00:24.843Z,48.35
2022-10-31T17:02:53.885Z,54.42
2022-10-31T17:05:30.356Z,48.97
2022-10-31T17:07:57.903Z,41.95
2022-10-31T17:10:28.362Z,31.75
2022-10-31T17:12:57.436Z,30.65
2022-10-31T17:15:32.326Z,48.97
2022-10-31T17:17:59.796Z,51.67
2022-10-31T17:20:31.362Z,20.40
2022-10-31T17:23:00.260Z,17.10
2022-10-31T17:25:31.814Z,21.10
2022-10-31T17:27:59.686Z,20.30
2022-10-31T17:30:27.082Z,18.05
2022-10-31T17:32:55.521Z,21.02
2022-10-31T17:35:22.864Z,14.77
2022-10-31T17:37:50.167Z,19.40
2022-10-31T17:40:19.793Z,42.17
2022-10-31T17:42:54.259Z,111.32
2022-10-31T17:45:21.841Z,135.02
2022-10-31T17:47:49.927Z,110.68
2022-10-31T17:50:22.052Z,86.63
2022-10-31T17:52:49.545Z,80.22
2022-10-31T17:55:17.306Z,57.65
2022-10-31T17:57:44.523Z,50.97
2022-10-31T18:00:14.689Z,51.58
2022-10-31T18:02:41.906Z,42.42
2022-10-31T18:05:09.193Z,25.63
2022-10-31T18:07:36.048Z,18.15
2022-10-31T18:10:03.789Z,13.52
2022-10-31T18:12:32.301Z,16.33
2022-10-31T18:14:59.289Z,13.77
2022-10-31T18:17:26.536Z,14.82
2022-10-31T18:19:53.384Z,14.98
2022-10-31T18:22:20.157Z,14.80
2022-10-31T18:24:46.884Z,10.80
2022-10-31T18:27:13.682Z,14.80
2022-10-31T18:29:40.442Z,11.35
2022-10-31T18:32:09.464Z,13.73
2022-10-31T18:34:37.003Z,12.82
2022-10-31T18:37:03.804Z,13.13
2022-10-31T18:39:30.589Z,14.82
2022-10-31T18:41:57.534Z,14.48
2022-10-31T18:44:24.687Z,12.05
2022-10-31T18:46:51.506Z,9.02
2022-10-31T18:49:22.646Z,10.48
2022-10-31T18:51:52.758Z,9.48
2022-10-31T18:54:19.604Z,17.23
2022-10-31T18:56:46.406Z,10.23
2022-10-31T18:59:13.363Z,12.65
2022-10-31T19:01:41.069Z,12.13
2022-10-31T19:04:10.597Z,12.25
2022-10-31T19:06:38.325Z,12.13
2022-10-31T19:09:09.479Z,12.35
2022-10-31T19:11:38.231Z,10.02
2022-10-31T19:14:08.087Z,15.32
2022-10-31T19:16:35.341Z,12.23
2022-10-31T19:19:02.301Z,15.20
2022-10-31T19:21:31.078Z,10.45
2022-10-31T19:23:59.328Z,10.40
2022-10-31T19:26:27.514Z,13.35
2022-10-31T19:28:56.385Z,11.38
2022-10-31T19:31:23.284Z,11.10
2022-10-31T19:33:50.032Z,17.33
2022-10-31T19:36:18.740Z,13.52
2022-10-31T19:38:48.000Z,10.10
2022-10-31T19:41:17.447Z,10.85
2022-10-31T19:43:44.512Z,16.52
2022-10-31T19:46:22.939Z,22.67
2022-10-31T19:49:03.306Z,17.88
2022-10-31T19:51:30.177Z,13.68
2022-10-31T19:53:56.920Z,11.60
2022-10-31T19:56:25.685Z,18.05
2022-10-31T19:58:53.029Z,11.35
2022-10-31T20:01:23.164Z,12.23
2022-10-31T20:03:50.666Z,11.45
2022-10-31T20:06:36.040Z,15.00
2022-10-31T20:09:07.912Z,18.90
2022-10-31T20:11:36.854Z,16.00
2022-10-31T20:14:03.925Z,14.75
2022-10-31T20:16:30.904Z,17.90
2022-10-31T20:18:59.477Z,18.13
2022-10-31T20:21:31.852Z,14.43
2022-10-31T20:24:00.458Z,17.63
2022-10-31T20:26:28.350Z,21.35
2022-10-31T20:28:59.891Z,17.40
2022-10-31T20:31:29.161Z,16.30
2022-10-31T20:33:56.476Z,16.52
2022-10-31T20:36:23.704Z,17.45
2022-10-31T20:38:52.106Z,13.30
2022-10-31T20:41:19.337Z,12.85
2022-10-31T20:43:46.619Z,11.55
2022-10-31T20:46:19.049Z,16.10
2022-10-31T20:48:46.589Z,14.25
2022-10-31T20:51:23.204Z,14.60
2022-10-31T20:53:51.796Z,12.93
2022-10-31T20:56:22.257Z,19.20
2022-10-31T20:58:49.461Z,11.75
2022-10-31T21:01:16.309Z,14.38
2022-10-31T21:03:43.990Z,15.25
2022-10-31T21:06:11.843Z,13.20
2022-10-31T21:08:39.214Z,15.50
2022-10-31T21:11:09.472Z,20.27
2022-10-31T21:13:41.328Z,15.85
2022-10-31T21:16:17.543Z,16.73
2022-10-31T21:18:46.089Z,20.17
2022-10-31T21:21:14.302Z,21.23
2022-10-31T21:23:42.938Z,22.40
2022-10-31T21:26:21.194Z,19.63
2022-10-31T21:28:49.513Z,20.85
2022-10-31T21:31:17.896Z,20.45
2022-10-31T21:33:46.233Z,19.50
2022-10-31T21:36:14.530Z,19.88
2022-10-31T21:38:41.769Z,21.17
2022-10-31T21:41:14.340Z,15.45
2022-10-31T21:43:43.580Z,14.70
2022-10-31T21:46:13.102Z,15.93
2022-10-31T21:48:42.085Z,17.50
2022-10-31T21:51:11.317Z,12.63
2022-10-31T21:53:57.193Z,15.55
2022-10-31T21:56:24.928Z,14.82
2022-10-31T21:58:53.204Z,16.55
2022-10-31T22:01:21.580Z,15.07
2022-10-31T22:03:48.781Z,13.80
2022-10-31T22:06:16.162Z,13.35
2022-10-31T22:08:43.432Z,14.15
2022-10-31T22:11:16.133Z,16.00
2022-10-31T22:13:45.336Z,20.33
2022-10-31T22:16:19.595Z,13.43
2022-10-31T22:18:46.830Z,14.13
2022-10-31T22:21:18.745Z,12.13
2022-10-31T22:23:53.446Z,13.05
2022-10-31T22:26:20.627Z,12.05
2022-10-31T22:28:53.584Z,16.60
2022-10-31T22:31:22.345Z,14.25
2022-10-31T22:33:50.602Z,15.43
2022-10-31T22:36:20.159Z,15.48
2022-10-31T22:38:47.465Z,14.68
2022-10-31T22:41:17.002Z,12.40
2022-10-31T22:43:43.969Z,14.38
2022-10-31T22:46:14.036Z,13.27
2022-10-31T22:48:46.545Z,15.20
2022-10-31T22:51:17.138Z,16.58
2022-10-31T22:53:44.880Z,13.48
2022-10-31T22:56:15.295Z,13.57
2022-10-31T22:58:42.409Z,12.73
2022-10-31T23:01:17.887Z,11.70
2022-10-31T23:03:45.207Z,16.65
2022-10-31T23:06:18.205Z,11.10
2022-10-31T23:08:45.380Z,17.60
2022-10-31T23:11:26.411Z,11.43
2022-10-31T23:14:13.445Z,13.70
2022-10-31T23:16:55.139Z,11.50
2022-10-31T23:19:22.663Z,14.65
2022-10-31T23:21:55.254Z,15.07
2022-10-31T23:24:37.622Z,11.15
2022-10-31T23:27:19.944Z,11.30
2022-10-31T23:29:49.073Z,12.10
2022-10-31T23:32:17.893Z,12.15
2022-10-31T23:34:44.908Z,14.02
2022-10-31T23:37:12.530Z,8.98
2022-10-31T23:39:39.360Z,12.05
2022-10-31T23:42:06.551Z,12.00
2022-10-31T23:44:33.326Z,15.60
2022-10-31T23:47:00.279Z,13.00
2022-10-31T23:49:27.174Z,10.52
2022-10-31T23:51:56.494Z,10.85
2022-10-31T23:54:23.988Z,13.05
2022-10-31T23:56:51.195Z,8.70
2022-10-31T23:59:18.196Z,8.43
